• Join FlightAware (Why Join?)
  • Login
  • US Flag 
06:56AM EDT


 

Airport Tracker/Info


-or-


 

Live Flight TrackerFlight Track Log ✈ AWE4519 ✈ 21-Jun-2014 ✈ KRIC - KCLT

Flight Track Log - Related Links

Times and Time Zones

All times are in EDT time to prevent confusion due to time zone crossing. See the AWE4519 flight status page for this flight to view local times or setup timezone preferences in your user account.

Time Position Orientation Groundspeed Altitude Reporting Facility
EDT Latitude Longitude Course Direction KTS MPH feet Rate Location/Type
08:36PM 37.5333 -77.3667 247° West 216 249 2,900  Level Potomac TRACON
08:37PM 37.4667 -77.5882 270° West  Level FlightAware Approximate
08:37PM 37.5142 -77.4611 256° West 239 275 5,400  Level Washington Center
08:38PM 37.4500 -77.6753 270° West  Level FlightAware Approximate
08:38PM 37.4878 -77.5522 250° West 265 305 8,500  Level Washington Center
08:39PM 37.4287 -77.7685 253° West  Level FlightAware Approximate
08:39PM 37.4653 -77.6458 253° West 279 321 10,900  Level Washington Center
08:40PM 37.4024 -77.8597 247° West  Level FlightAware Approximate
08:40PM 37.4364 -77.7522 251° West 299 344 13,400  Level Washington Center
08:41PM 37.3725 -77.9493 247° West  Level FlightAware Approximate
08:41PM 37.4072 -77.8639 252° West 317 365 15,200  Level Washington Center
08:42PM 37.3758 -77.9781 251° West 333 383 17,200 2,160 Climbing Washington Center
08:43PM 37.3464 -78.0919 252° West 348 400 19,600 1,920 Climbing Washington Center
08:44PM 37.3189 -78.1981 252° West 348 400 21,100 1,500 Climbing Washington Center
08:45PM 37.2869 -78.3250 252° West 367 422 22,700 1,380 Climbing Washington Center
08:46PM 37.2797 -78.4553 266° West 375 432 23,900 600 Climbing Washington Center
08:47PM 37.2286 -78.5811 243° Southwest 386 444 24,000 540 Climbing Washington Center
08:48PM 37.1569 -78.7008 233° Southwest 405 466 25,100 960 Climbing Washington Center
08:49PM 37.0808 -78.8175 231° Southwest 428 493 26,000 420 Climbing Washington Center
08:50PM 37.0064 -78.9392 233° Southwest 441 507 26,000  Level Washington Center
08:51PM 36.9300 -79.0556 231° Southwest 447 514 26,000  Level Washington Center
08:52PM 36.8600 -79.1667 232° Southwest 440 506 26,000 -300 Level Washington Center
08:53PM 36.7833 -79.2850 231° Southwest 419 482 25,400 -900 Descending Washington Center
08:54PM 36.7175 -79.3906 232° Southwest 405 466 24,300 -720 Descending Washington Center
08:55PM 36.6561 -79.4861 231° Southwest 380 437 24,000 -120 Descending Washington Center
08:57PM 36.5075 -79.7125 231° Southwest 358 412 24,000  Level Atlanta Center
08:58PM 36.4422 -79.8114 231° Southwest 363 418 24,000  Level Atlanta Center
08:59PM 36.3769 -79.9128 231° Southwest 368 423 24,000 -180 Level Atlanta Center
09:00PM 36.3069 -80.0092 228° Southwest 373 429 23,700 -840 Descending Atlanta Center
09:01PM 36.2178 -80.0858 215° Southwest 385 443 22,400 -1,380 Descending Atlanta Center
09:02PM 36.1264 -80.1647 215° Southwest 396 456 21,000 -1,380 Descending Atlanta Center
09:03PM 36.0392 -80.2383 214° Southwest 396 456 19,700 -1,260 Descending Atlanta Center
09:04PM 35.9600 -80.3086 216° Southwest 377 434 18,500 -1,200 Descending Atlanta Center
09:05PM 35.8703 -80.3844 214° Southwest 369 425 17,400 -1,200 Descending Atlanta Center
09:06PM 35.8564 -80.4031 227° Southwest 345 397 17,100 -1,140 Descending Atlanta Center
09:06PM 35.8094 -80.4386 212° Southwest 329 379 16,500 -900 Descending Atlanta Center
09:06PM 35.7972 -80.4467 208° Southwest 351 404 16,400 -1,020 Descending Atlanta Center
09:07PM 35.7272 -80.4831 203° Southwest 326 375 15,500 -1,020 Descending Atlanta Center
09:07PM 35.7108 -80.4889 196° South 334 384 15,400 -1,140 Descending Atlanta Center
09:08PM 35.6469 -80.5197 201° Southwest 332 382 14,500 -1,020 Descending Atlanta Center
09:08PM 35.6242 -80.5283 197° South 329 379 14,400 -900 Descending Atlanta Center
09:09PM 35.5606 -80.5592 202° Southwest 325 374 13,600 -1,020 Descending Atlanta Center
09:09PM 35.5419 -80.5650 194° South 329 379 13,400 -1,140 Descending Atlanta Center
09:10PM 35.4844 -80.5981 205° Southwest 303 349 12,500 -1,020 Descending Atlanta Center
09:10PM 35.4658 -80.6117 211° Southwest 323 372 12,400 -900 Descending Atlanta Center
09:11PM 35.4214 -80.6644 224° Southwest 288 331 11,600 -1,020 Descending Atlanta Center
09:11PM 35.4053 -80.6806 219° Southwest 306 352 11,400 -1,140 Descending Atlanta Center
09:12PM 35.3631 -80.7381 228° Southwest 305 351 10,500 -1,020 Descending Atlanta Center
09:12PM 35.3489 -80.7567 227° Southwest 306 352 10,400 -600 Descending Atlanta Center
09:13PM 35.3067 -80.8169 229° Southwest 302 348 9,900 -540 Descending Atlanta Center
09:13PM 35.2922 -80.8275 211° Southwest 301 346 9,900 -1,020 Level Atlanta Center
09:14PM 35.2361 -80.8297 182° South 249 287 8,900 3,060 Descending Atlanta Center
09:14PM 35.2236 -80.8278 173° South 251 289 13,000 -1,620 Climbing Atlanta Center
09:15PM 35.1669 -80.8197 173° South 248 285 7,300 -5,520 Descending Atlanta Center
09:15PM 35.1628 -80.8200 183° South 240 276 7,500 -1,920 Climbing Atlanta Center
09:16PM 35.0978 -80.8072 171° South 248 285 5,400 -1,920 Descending Atlanta Center
09:17PM 35.0419 -80.8297 198° South 236 272 4,000 -900 Descending Atlanta Center
09:18PM 35.0478 -80.8953 276° West 210 242 3,600 -600 Descending Atlanta Center
09:19PM 35.0967 -80.9292 330° Northwest 179 206 2,800 -900 Descending Atlanta Center
09:20PM 35.1364 -80.9325 356° North 130 150 1,900 -840 Descending Atlanta Center
09:21PM 35.1761 -80.9361 356° North 137 158 1,200 -720 Descending Atlanta Center